createdAt,value
2019-05-05T00:02:04.935Z,4.58
2019-05-05T00:05:05.911Z,5.97
2019-05-05T00:07:35.257Z,5.20
2019-05-05T00:10:04.634Z,4.42
2019-05-05T00:13:01.887Z,3.62
2019-05-05T00:15:48.478Z,4.28
2019-05-05T00:18:18.179Z,4.92
2019-05-05T00:20:46.876Z,3.37
2019-05-05T00:23:15.584Z,2.98
2019-05-05T00:25:44.794Z,4.00
2019-05-05T00:28:14.348Z,4.60
2019-05-05T00:30:44.832Z,2.87
2019-05-05T00:33:14.531Z,2.40
2019-05-05T00:35:45.080Z,4.37
2019-05-05T00:38:14.501Z,3.95
2019-05-05T00:40:44.300Z,4.42
2019-05-05T00:43:14.764Z,4.33
2019-05-05T00:45:45.124Z,3.25
2019-05-05T00:48:19.091Z,3.20
2019-05-05T00:50:47.728Z,3.95
2019-05-05T00:53:16.417Z,3.72
2019-05-05T00:55:45.079Z,4.35
2019-05-05T00:58:14.345Z,3.75
2019-05-05T01:01:00.837Z,3.37
2019-05-05T01:03:29.418Z,3.95
2019-05-05T01:06:09.811Z,2.45
2019-05-05T01:08:38.399Z,2.70
2019-05-05T01:11:08.064Z,3.02
2019-05-05T01:13:36.683Z,4.37
2019-05-05T01:16:05.328Z,2.50
2019-05-05T01:18:35.156Z,4.00
2019-05-05T01:21:04.619Z,2.72
2019-05-05T01:23:35.030Z,3.37
2019-05-05T01:26:05.055Z,2.08
2019-05-05T01:28:35.516Z,3.22
2019-05-05T01:31:07.809Z,2.42
2019-05-05T01:33:41.706Z,3.50
2019-05-05T01:36:10.211Z,2.65
2019-05-05T01:38:46.895Z,3.27
2019-05-05T01:41:22.033Z,5.45
2019-05-05T01:43:50.584Z,2.67
2019-05-05T01:46:19.223Z,2.77
2019-05-05T01:48:47.899Z,1.98
2019-05-05T01:51:16.579Z,3.25
2019-05-05T01:53:45.101Z,3.00
2019-05-05T01:56:15.371Z,3.42
2019-05-05T01:58:44.270Z,3.55
2019-05-05T02:01:15.152Z,2.22
2019-05-05T02:03:44.251Z,2.60
2019-05-05T02:06:14.260Z,2.45
2019-05-05T02:08:45.251Z,3.20
2019-05-05T02:11:15.486Z,2.87
2019-05-05T02:13:45.065Z,2.60
2019-05-05T02:16:15.075Z,3.62
2019-05-05T02:18:45.022Z,2.15
2019-05-05T02:21:14.266Z,3.62
2019-05-05T02:23:45.164Z,3.10
2019-05-05T02:26:14.718Z,2.37
2019-05-05T02:29:11.608Z,2.02
2019-05-05T02:31:58.210Z,2.80
2019-05-05T02:34:28.968Z,3.47
2019-05-05T02:36:57.565Z,2.75
2019-05-05T02:39:29.267Z,3.40
2019-05-05T02:41:58.251Z,2.30
2019-05-05T02:44:27.242Z,3.05
2019-05-05T02:47:15.185Z,3.12
2019-05-05T02:49:45.224Z,5.00
2019-05-05T02:52:15.136Z,4.33
2019-05-05T02:54:45.044Z,3.67
2019-05-05T02:57:14.455Z,3.65
2019-05-05T02:59:51.602Z,3.55
2019-05-05T03:02:23.666Z,3.47
2019-05-05T03:04:53.639Z,3.90
2019-05-05T03:07:25.101Z,2.55
2019-05-05T03:09:54.539Z,3.77
2019-05-05T03:12:24.416Z,2.58
2019-05-05T03:14:54.510Z,3.35
2019-05-05T03:17:23.522Z,3.27
2019-05-05T03:19:53.562Z,3.95
2019-05-05T03:22:23.677Z,4.83
2019-05-05T03:24:54.119Z,3.30
2019-05-05T03:27:23.789Z,2.83
2019-05-05T03:29:53.553Z,2.98
2019-05-05T03:32:25.303Z,3.77
2019-05-05T03:34:53.672Z,2.70
2019-05-05T03:37:24.992Z,3.52
2019-05-05T03:40:14.903Z,4.75
2019-05-05T03:43:17.910Z,4.35
2019-05-05T03:45:51.366Z,2.17
2019-05-05T03:48:20.681Z,2.42
2019-05-05T03:50:49.889Z,2.65
2019-05-05T03:53:18.674Z,3.92
2019-05-05T03:55:47.349Z,2.65
2019-05-05T03:58:16.111Z,3.52
2019-05-05T04:01:09.996Z,3.72
2019-05-05T04:03:38.703Z,4.03
2019-05-05T04:06:07.842Z,2.67
2019-05-05T04:08:36.525Z,2.83
2019-05-05T04:11:05.143Z,3.02
2019-05-05T04:13:34.635Z,3.33
2019-05-05T04:16:19.042Z,2.72
2019-05-05T04:18:54.670Z,2.60
2019-05-05T04:21:31.198Z,3.25
2019-05-05T04:23:54.004Z,2.67
2019-05-05T04:26:23.478Z,3.85
2019-05-05T04:28:54.049Z,3.12
2019-05-05T04:31:24.766Z,4.97
2019-05-05T04:33:53.870Z,2.37
2019-05-05T04:36:23.686Z,3.52
2019-05-05T04:38:54.389Z,2.72
2019-05-05T04:41:24.494Z,3.00
2019-05-05T04:43:54.707Z,3.67
2019-05-05T04:46:24.662Z,4.17
2019-05-05T04:49:03.564Z,3.75
2019-05-05T04:51:46.943Z,2.65
2019-05-05T04:54:14.692Z,4.30
2019-05-05T04:56:44.748Z,3.15
2019-05-05T04:59:14.407Z,3.55
2019-05-05T05:01:44.010Z,5.42
2019-05-05T05:04:37.788Z,4.08
2019-05-05T05:07:06.679Z,6.62
2019-05-05T05:09:35.210Z,4.60
2019-05-05T05:12:04.116Z,4.55
2019-05-05T05:14:33.721Z,3.00
2019-05-05T05:17:04.148Z,5.15
2019-05-05T05:19:33.492Z,4.33
2019-05-05T05:22:04.715Z,3.72
2019-05-05T05:24:34.377Z,3.00
2019-05-05T05:27:04.846Z,4.05
2019-05-05T05:29:34.546Z,3.58
2019-05-05T05:32:04.210Z,3.62
2019-05-05T05:34:34.438Z,3.67
2019-05-05T05:37:04.242Z,4.30
2019-05-05T05:39:48.611Z,3.52
2019-05-05T05:42:17.240Z,4.90
2019-05-05T05:45:04.971Z,3.62
2019-05-05T05:47:51.316Z,3.20
2019-05-05T05:50:28.985Z,5.92
2019-05-05T05:52:57.571Z,4.25
2019-05-05T05:55:27.809Z,5.33
2019-05-05T05:57:56.327Z,3.70
2019-05-05T06:00:25.102Z,3.72
2019-05-05T06:02:54.541Z,4.03
2019-05-05T06:05:23.909Z,5.80
2019-05-05T06:07:54.517Z,4.17
2019-05-05T06:10:27.029Z,4.25
2019-05-05T06:12:54.710Z,4.62
2019-05-05T06:15:24.426Z,5.50
2019-05-05T06:17:54.023Z,4.87
2019-05-05T06:20:25.623Z,5.53
2019-05-05T06:22:54.240Z,4.97
2019-05-05T06:25:26.310Z,4.62
2019-05-05T06:27:54.308Z,4.25
2019-05-05T06:30:24.444Z,5.53
2019-05-05T06:32:54.384Z,5.30
2019-05-05T06:35:24.496Z,3.30
2019-05-05T06:37:54.380Z,3.52
2019-05-05T06:40:29.145Z,3.67
2019-05-05T06:43:19.874Z,4.12
2019-05-05T06:45:53.554Z,3.10
2019-05-05T06:48:23.728Z,4.62
2019-05-05T06:50:54.438Z,3.55
2019-05-05T06:53:23.913Z,4.47
2019-05-05T06:55:54.288Z,5.12
2019-05-05T06:58:24.153Z,5.50
2019-05-05T07:00:54.295Z,2.58
2019-05-05T07:03:24.305Z,2.22
2019-05-05T07:05:53.918Z,3.20
2019-05-05T07:08:24.347Z,4.28
2019-05-05T07:10:54.848Z,4.70
2019-05-05T07:13:24.431Z,1.98
2019-05-05T07:15:54.246Z,4.35
2019-05-05T07:18:24.711Z,5.70
2019-05-05T07:20:54.497Z,2.62
2019-05-05T07:23:24.658Z,1.75
2019-05-05T07:25:54.953Z,1.60
2019-05-05T07:28:23.711Z,2.25
2019-05-05T07:30:54.582Z,1.32
2019-05-05T07:33:23.884Z,3.30
2019-05-05T07:36:11.624Z,1.22
2019-05-05T07:38:40.362Z,1.75
2019-05-05T07:41:08.903Z,2.72
2019-05-05T07:43:37.527Z,1.80
2019-05-05T07:46:06.307Z,1.85
2019-05-05T07:48:34.977Z,2.00
2019-05-05T07:51:05.219Z,2.35
2019-05-05T07:53:34.128Z,2.35
2019-05-05T07:56:03.921Z,2.08
2019-05-05T07:58:34.528Z,1.82
2019-05-05T08:01:04.705Z,2.30
2019-05-05T08:03:33.930Z,2.05
2019-05-05T08:06:03.982Z,2.70
2019-05-05T08:08:33.510Z,1.25
2019-05-05T08:11:04.643Z,4.08
2019-05-05T08:13:33.610Z,3.60
2019-05-05T08:16:04.419Z,1.95
2019-05-05T08:18:54.866Z,2.25
2019-05-05T08:21:24.059Z,4.75
2019-05-05T08:24:10.142Z,5.40
2019-05-05T08:27:00.896Z,5.25
2019-05-05T08:29:34.475Z,4.90
2019-05-05T08:32:21.123Z,4.83
2019-05-05T08:34:59.736Z,3.70
2019-05-05T08:37:23.591Z,4.85
2019-05-05T08:39:53.883Z,5.33
2019-05-05T08:42:22.080Z,6.60
2019-05-05T08:44:50.609Z,5.58
2019-05-05T08:47:19.236Z,6.90
2019-05-05T08:49:48.078Z,4.62
2019-05-05T08:52:16.746Z,6.08
2019-05-05T08:54:45.372Z,8.13
2019-05-05T08:57:14.637Z,6.28
2019-05-05T08:59:43.939Z,8.13
2019-05-05T09:02:14.774Z,6.90
2019-05-05T09:04:44.684Z,8.73
2019-05-05T09:07:13.861Z,9.75
2019-05-05T09:09:44.138Z,8.93
2019-05-05T09:12:13.934Z,8.70
2019-05-05T09:14:44.723Z,8.55
2019-05-05T09:17:13.692Z,8.98
2019-05-05T09:19:44.728Z,7.78
2019-05-05T09:22:14.005Z,5.95
2019-05-05T09:24:50.453Z,10.23
2019-05-05T09:27:44.322Z,8.93
2019-05-05T09:30:14.303Z,9.60
2019-05-05T09:32:43.886Z,8.33
2019-05-05T09:35:13.856Z,7.22
2019-05-05T09:37:44.292Z,11.33
2019-05-05T09:40:13.914Z,6.25
2019-05-05T09:42:44.311Z,11.50
2019-05-05T09:45:13.980Z,9.70
2019-05-05T09:47:44.879Z,9.90
2019-05-05T09:50:14.486Z,9.60
2019-05-05T09:52:44.361Z,7.50
2019-05-05T09:55:13.862Z,9.40
2019-05-05T09:57:43.768Z,14.15
2019-05-05T10:00:14.072Z,12.10
2019-05-05T10:02:44.160Z,8.00
2019-05-05T10:05:14.516Z,7.85
2019-05-05T10:07:44.067Z,11.83
2019-05-05T10:10:13.812Z,13.22
2019-05-05T10:12:44.395Z,11.93
2019-05-05T10:15:13.833Z,9.78
2019-05-05T10:17:42.744Z,8.00
2019-05-05T10:20:11.561Z,8.00
2019-05-05T10:22:40.129Z,8.45
2019-05-05T10:25:26.633Z,7.53
2019-05-05T10:27:55.478Z,8.30
2019-05-05T10:30:24.153Z,8.05
2019-05-05T10:32:54.535Z,8.05
2019-05-05T10:35:23.711Z,8.93
2019-05-05T10:37:54.392Z,11.75
2019-05-05T10:40:25.987Z,9.90
2019-05-05T10:42:55.587Z,8.98
2019-05-05T10:45:25.315Z,6.05
2019-05-05T10:47:55.059Z,7.28
2019-05-05T10:50:24.745Z,4.37
2019-05-05T10:52:53.718Z,7.33
2019-05-05T10:55:23.903Z,6.87
2019-05-05T10:57:54.240Z,7.40
2019-05-05T11:00:34.397Z,4.20
2019-05-05T11:03:04.030Z,10.10
2019-05-05T11:05:33.976Z,9.03
2019-05-05T11:08:04.376Z,6.80
2019-05-05T11:10:34.025Z,7.30
2019-05-05T11:13:02.687Z,7.78
2019-05-05T11:15:33.439Z,8.38
2019-05-05T11:18:03.929Z,8.40
2019-05-05T11:20:34.061Z,8.25
2019-05-05T11:23:04.701Z,6.08
2019-05-05T11:25:33.751Z,6.17
2019-05-05T11:28:05.027Z,5.08
2019-05-05T11:30:37.945Z,8.53
2019-05-05T11:33:25.676Z,6.58
2019-05-05T11:36:00.675Z,5.28
2019-05-05T11:38:29.244Z,9.65
2019-05-05T11:40:57.786Z,6.83
2019-05-05T11:43:26.425Z,5.78
2019-05-05T11:45:55.048Z,6.75
2019-05-05T11:48:24.138Z,5.97
2019-05-05T11:50:54.082Z,10.82
2019-05-05T11:53:25.128Z,7.97
2019-05-05T11:55:54.961Z,9.55
2019-05-05T11:58:24.823Z,7.95
2019-05-05T12:00:54.471Z,11.30
2019-05-05T12:03:23.412Z,9.08
2019-05-05T12:05:52.035Z,4.25
2019-05-05T12:08:20.557Z,7.00
2019-05-05T12:11:15.041Z,9.58
2019-05-05T12:13:44.068Z,6.53
2019-05-05T12:16:14.316Z,5.00
2019-05-05T12:18:44.822Z,5.05
2019-05-05T12:21:13.954Z,4.87
2019-05-05T12:23:44.371Z,6.28
2019-05-05T12:26:32.105Z,6.75
2019-05-05T12:29:03.293Z,4.33
2019-05-05T12:31:33.854Z,6.20
2019-05-05T12:34:03.929Z,7.53
2019-05-05T12:36:34.178Z,7.03
2019-05-05T12:39:04.730Z,5.37
2019-05-05T12:41:35.006Z,3.10
2019-05-05T12:44:04.327Z,6.30
2019-05-05T12:46:48.362Z,6.30
2019-05-05T12:49:17.419Z,9.30
2019-05-05T12:51:46.030Z,8.45
2019-05-05T12:54:14.790Z,8.85
2019-05-05T12:56:44.586Z,5.97
2019-05-05T12:59:19.228Z,17.17
2019-05-05T13:01:47.896Z,16.85
2019-05-05T13:04:16.557Z,4.58
2019-05-05T13:06:45.240Z,7.83
2019-05-05T13:09:14.382Z,9.50
2019-05-05T13:11:43.659Z,5.60
2019-05-05T13:14:14.289Z,4.95
2019-05-05T13:16:52.485Z,4.22
2019-05-05T13:19:24.199Z,3.45
2019-05-05T13:22:08.134Z,7.40
2019-05-05T13:25:01.787Z,4.50
2019-05-05T13:27:35.026Z,6.90
2019-05-05T13:30:04.381Z,5.17
2019-05-05T13:32:33.561Z,8.53
2019-05-05T13:35:04.030Z,7.90
2019-05-05T13:37:33.808Z,5.28
2019-05-05T13:40:04.325Z,7.80
2019-05-05T13:42:33.137Z,7.42
2019-05-05T13:45:34.296Z,4.87
2019-05-05T13:48:03.635Z,5.90
2019-05-05T13:50:35.649Z,6.55
2019-05-05T13:53:04.441Z,6.65
2019-05-05T13:55:34.694Z,8.10
2019-05-05T13:58:03.947Z,10.88
2019-05-05T14:00:33.818Z,7.67
2019-05-05T14:03:03.927Z,6.10
2019-05-05T14:05:34.419Z,12.90
2019-05-05T14:08:04.151Z,12.18
2019-05-05T14:10:33.929Z,5.85
2019-05-05T14:13:03.748Z,3.95
2019-05-05T14:15:34.101Z,6.60
2019-05-05T14:18:03.822Z,4.45
2019-05-05T14:20:34.486Z,5.60
2019-05-05T14:23:03.868Z,5.70
2019-05-05T14:25:32.796Z,5.65
2019-05-05T14:28:03.518Z,9.03
2019-05-05T14:30:54.210Z,6.17
2019-05-05T14:33:28.552Z,5.42
2019-05-05T14:36:16.228Z,6.47
2019-05-05T14:38:49.498Z,4.62
2019-05-05T14:41:18.305Z,3.42
2019-05-05T14:43:46.943Z,4.62
2019-05-05T14:46:16.632Z,5.70
2019-05-05T14:48:45.265Z,5.58
2019-05-05T14:51:14.614Z,7.72
2019-05-05T14:53:43.828Z,7.08
2019-05-05T14:56:13.634Z,6.33
2019-05-05T14:58:43.835Z,5.33
2019-05-05T15:01:14.440Z,7.37
2019-05-05T15:03:44.448Z,7.90
2019-05-05T15:06:44.242Z,5.92
2019-05-05T15:09:24.708Z,8.35
2019-05-05T15:12:27.958Z,7.45
2019-05-05T15:14:56.717Z,6.90
2019-05-05T15:17:25.471Z,5.08
2019-05-05T15:19:54.174Z,5.70
2019-05-05T15:22:24.051Z,6.17
2019-05-05T15:24:53.630Z,7.70
2019-05-05T15:27:24.169Z,7.97
2019-05-05T15:29:54.257Z,8.60
2019-05-05T15:32:24.031Z,7.97
2019-05-05T15:34:54.529Z,7.83
2019-05-05T15:37:23.836Z,9.88
2019-05-05T15:39:53.645Z,7.08
2019-05-05T15:42:22.719Z,7.55
2019-05-05T15:44:51.440Z,10.25
2019-05-05T15:47:20.045Z,6.53
2019-05-05T15:49:48.768Z,8.50
2019-05-05T15:52:20.069Z,7.72
2019-05-05T15:54:47.907Z,6.22
2019-05-05T15:57:18.062Z,9.50
2019-05-05T15:59:47.109Z,11.90
2019-05-05T16:02:15.843Z,9.33
2019-05-05T16:04:44.508Z,8.53
2019-05-05T16:07:13.823Z,5.67
2019-05-05T16:09:44.346Z,6.78
2019-05-05T16:12:14.354Z,9.60
2019-05-05T16:15:04.360Z,11.03
2019-05-05T16:17:54.556Z,5.70
2019-05-05T16:20:30.324Z,6.67
2019-05-05T16:23:24.136Z,7.60
2019-05-05T16:25:54.279Z,5.62
2019-05-05T16:28:24.986Z,7.62
2019-05-05T16:30:55.880Z,7.40
2019-05-05T16:33:24.164Z,4.97
2019-05-05T16:35:54.009Z,10.00
2019-05-05T16:38:24.057Z,6.53
2019-05-05T16:40:53.820Z,7.35
2019-05-05T16:43:24.689Z,6.53
2019-05-05T16:45:53.742Z,5.60
2019-05-05T16:48:25.216Z,7.08
2019-05-05T16:50:54.209Z,5.33
2019-05-05T16:53:36.132Z,8.43
2019-05-05T16:56:06.057Z,6.22
2019-05-05T16:58:34.877Z,4.80
2019-05-05T17:01:03.891Z,3.95
2019-05-05T17:03:32.684Z,5.30
2019-05-05T17:06:03.600Z,6.17
2019-05-05T17:08:33.606Z,4.92
2019-05-05T17:11:02.175Z,8.03
2019-05-05T17:13:56.226Z,6.83
2019-05-05T17:16:54.471Z,4.03
2019-05-05T17:19:27.596Z,4.83
2019-05-05T17:22:14.766Z,7.83
2019-05-05T17:24:44.128Z,5.72
2019-05-05T17:27:13.924Z,4.03
2019-05-05T17:29:43.976Z,8.10
2019-05-05T17:32:14.005Z,8.83
2019-05-05T17:34:44.769Z,5.95
2019-05-05T17:37:13.498Z,5.53
2019-05-05T17:39:51.464Z,4.33
2019-05-05T17:42:48.631Z,4.20
2019-05-05T17:45:49.269Z,5.47
2019-05-05T17:48:26.039Z,6.35
2019-05-05T17:51:23.459Z,5.30
2019-05-05T17:54:20.860Z,6.95
2019-05-05T17:56:52.481Z,3.52
2019-05-05T17:59:20.377Z,2.90
2019-05-05T18:01:50.127Z,6.40
2019-05-05T18:04:21.837Z,4.95
2019-05-05T18:06:59.594Z,4.78
2019-05-05T18:09:50.408Z,7.53
2019-05-05T18:12:27.348Z,4.62
2019-05-05T18:14:57.301Z,5.03
2019-05-05T18:17:25.995Z,6.80
2019-05-05T18:19:54.625Z,5.50
2019-05-05T18:22:24.628Z,8.55
2019-05-05T18:24:53.989Z,4.25
2019-05-05T18:27:23.708Z,5.22
2019-05-05T18:29:54.233Z,5.80
2019-05-05T18:32:23.572Z,5.53
2019-05-05T18:34:56.216Z,3.60
2019-05-05T18:37:24.941Z,4.20
2019-05-05T18:39:54.656Z,7.50
2019-05-05T18:42:25.999Z,8.08
2019-05-05T18:45:03.718Z,5.37
2019-05-05T18:47:34.107Z,6.58
2019-05-05T18:50:04.126Z,7.25
2019-05-05T18:52:35.044Z,8.45
2019-05-05T18:55:04.382Z,4.40
2019-05-05T18:57:34.125Z,6.53
2019-05-05T19:00:03.799Z,7.83
2019-05-05T19:02:59.432Z,7.87
2019-05-05T19:05:50.000Z,4.75
2019-05-05T19:08:54.290Z,6.15
2019-05-05T19:11:18.053Z,5.47
2019-05-05T19:13:46.775Z,6.42
2019-05-05T19:16:15.627Z,6.78
2019-05-05T19:18:44.837Z,2.92
2019-05-05T19:21:19.949Z,5.65
2019-05-05T19:23:48.546Z,7.50
2019-05-05T19:26:17.213Z,8.43
2019-05-05T19:28:49.962Z,5.15
2019-05-05T19:31:16.938Z,5.05
2019-05-05T19:33:47.671Z,6.40
2019-05-05T19:36:17.369Z,4.22
2019-05-05T19:38:46.250Z,7.55
2019-05-05T19:41:15.315Z,7.25
2019-05-05T19:43:54.879Z,4.67
2019-05-05T19:46:28.201Z,4.72
2019-05-05T19:49:16.062Z,3.90
2019-05-05T19:51:44.967Z,5.35
2019-05-05T19:54:14.382Z,5.70
2019-05-05T19:56:44.811Z,4.47
2019-05-05T19:59:13.942Z,5.53
2019-05-05T20:01:45.124Z,6.47
2019-05-05T20:04:15.495Z,4.50
2019-05-05T20:06:45.877Z,4.50
2019-05-05T20:09:14.750Z,7.10
2019-05-05T20:11:44.183Z,6.22
2019-05-05T20:14:15.164Z,7.92
2019-05-05T20:17:04.317Z,7.80
2019-05-05T20:19:44.831Z,5.55
2019-05-05T20:22:14.651Z,5.92
2019-05-05T20:24:44.335Z,6.40
2019-05-05T20:27:15.183Z,6.55
2019-05-05T20:29:43.947Z,7.22
2019-05-05T20:32:13.911Z,4.25
2019-05-05T20:35:07.663Z,4.92
2019-05-05T20:37:54.169Z,6.15
2019-05-05T20:40:24.673Z,5.75
2019-05-05T20:42:54.242Z,6.83
2019-05-05T20:45:25.695Z,4.92
2019-05-05T20:47:54.432Z,6.30
2019-05-05T20:50:24.682Z,5.75
2019-05-05T20:52:53.677Z,4.85
2019-05-05T20:55:25.357Z,4.70
2019-05-05T20:57:53.794Z,5.50
2019-05-05T21:00:23.840Z,5.37
2019-05-05T21:02:53.818Z,4.15
2019-05-05T21:05:24.125Z,4.58
2019-05-05T21:07:52.984Z,4.78
2019-05-05T21:10:23.952Z,5.50
2019-05-05T21:12:54.238Z,5.12
2019-05-05T21:15:24.492Z,4.35
2019-05-05T21:17:54.074Z,6.62
2019-05-05T21:20:24.090Z,6.62
2019-05-05T21:22:58.540Z,3.27
2019-05-05T21:25:33.783Z,5.55
2019-05-05T21:28:03.731Z,2.55
2019-05-05T21:30:33.837Z,4.50
2019-05-05T21:33:04.388Z,3.87
2019-05-05T21:35:34.846Z,4.80
2019-05-05T21:38:04.791Z,4.83
2019-05-05T21:40:34.640Z,3.70
2019-05-05T21:43:07.435Z,6.40
2019-05-05T21:45:36.140Z,4.35
2019-05-05T21:48:04.753Z,4.25
2019-05-05T21:50:38.662Z,4.28
2019-05-05T21:53:15.038Z,3.85
2019-05-05T21:55:48.394Z,7.08
2019-05-05T21:58:26.313Z,4.75
2019-05-05T22:01:04.207Z,3.80
2019-05-05T22:03:35.947Z,4.50
2019-05-05T22:06:04.930Z,3.55
2019-05-05T22:08:33.837Z,5.22
2019-05-05T22:11:03.937Z,2.77
2019-05-05T22:13:36.216Z,5.90
2019-05-05T22:16:04.082Z,4.33
2019-05-05T22:18:32.963Z,5.22
2019-05-05T22:21:14.111Z,6.10
2019-05-05T22:23:44.408Z,5.15
2019-05-05T22:26:14.589Z,5.62
2019-05-05T22:28:44.637Z,6.75
2019-05-05T22:31:14.194Z,4.87
2019-05-05T22:33:44.704Z,5.08
2019-05-05T22:36:14.050Z,3.62
2019-05-05T22:38:44.622Z,4.15
2019-05-05T22:41:15.755Z,3.72
2019-05-05T22:43:44.321Z,5.08
2019-05-05T22:46:14.207Z,3.45
2019-05-05T22:48:44.032Z,3.60
2019-05-05T22:51:14.431Z,5.00
2019-05-05T22:53:43.986Z,5.03
2019-05-05T22:56:14.673Z,5.47
2019-05-05T22:58:43.898Z,5.00
2019-05-05T23:01:13.620Z,4.87
2019-05-05T23:03:55.271Z,4.67
2019-05-05T23:06:25.016Z,4.60
2019-05-05T23:08:54.647Z,5.15
2019-05-05T23:11:24.483Z,4.15
2019-05-05T23:13:55.898Z,3.15
2019-05-05T23:16:34.187Z,5.50
2019-05-05T23:19:03.605Z,5.53
2019-05-05T23:21:46.347Z,4.80
2019-05-05T23:24:34.387Z,4.80
2019-05-05T23:27:03.911Z,3.92
2019-05-05T23:29:34.126Z,3.45
2019-05-05T23:32:03.038Z,5.03
2019-05-05T23:34:33.726Z,5.67
2019-05-05T23:37:01.867Z,4.15
2019-05-05T23:39:30.576Z,4.92
2019-05-05T23:42:00.555Z,5.03
2019-05-05T23:44:29.172Z,3.92
2019-05-05T23:46:57.830Z,4.62
2019-05-05T23:49:26.351Z,3.70
2019-05-05T23:51:54.898Z,7.33
2019-05-05T23:54:24.837Z,6.37
2019-05-05T23:56:53.897Z,5.08
2019-05-05T23:59:24.084Z,4.62
